sensor_id;sensor_type;location;lat;lon;timestamp;pressure;altitude;pressure_sealevel;temperature;humidity
20009;BME280;10165;42.662;23.260;2023-02-23T00:01:58;93952.63;;;11.21;47.32
20009;BME280;10165;42.662;23.260;2023-02-23T00:04:30;93950.63;;;10.98;47.91
20009;BME280;10165;42.662;23.260;2023-02-23T00:06:57;93949.31;;;11.08;47.75
20009;BME280;10165;42.662;23.260;2023-02-23T00:09:24;93955.72;;;11.23;47.44
20009;BME280;10165;42.662;23.260;2023-02-23T00:11:53;93954.31;;;11.29;47.17
20009;BME280;10165;42.662;23.260;2023-02-23T00:14:25;93954.28;;;10.90;47.76
20009;BME280;10165;42.662;23.260;2023-02-23T00:16:56;93951.06;;;11.00;47.83
20009;BME280;10165;42.662;23.260;2023-02-23T00:19:25;93952.88;;;10.96;48.15
20009;BME280;10165;42.662;23.260;2023-02-23T00:21:52;93956.84;;;11.02;48.06
20009;BME280;10165;42.662;23.260;2023-02-23T00:24:19;93958.59;;;10.95;48.74
20009;BME280;10165;42.662;23.260;2023-02-23T00:26:47;93965.81;;;10.94;48.59
20009;BME280;10165;42.662;23.260;2023-02-23T00:29:22;93959.84;;;11.01;48.64
20009;BME280;10165;42.662;23.260;2023-02-23T00:31:50;93963.59;;;11.16;48.39
20009;BME280;10165;42.662;23.260;2023-02-23T00:34:19;93969.38;;;11.18;48.11
20009;BME280;10165;42.662;23.260;2023-02-23T00:36:53;93967.75;;;11.13;48.19
20009;BME280;10165;42.662;23.260;2023-02-23T00:39:21;93957.13;;;11.17;48.22
20009;BME280;10165;42.662;23.260;2023-02-23T00:41:52;93964.03;;;11.18;48.09
20009;BME280;10165;42.662;23.260;2023-02-23T00:44:21;93962.91;;;11.19;48.22
20009;BME280;10165;42.662;23.260;2023-02-23T00:46:49;93953.75;;;11.20;48.24
20009;BME280;10165;42.662;23.260;2023-02-23T00:49:19;93961.91;;;11.08;47.96
20009;BME280;10165;42.662;23.260;2023-02-23T00:51:46;93964.28;;;10.27;50.42
20009;BME280;10165;42.662;23.260;2023-02-23T00:54:14;93960.66;;;10.35;50.54
20009;BME280;10165;42.662;23.260;2023-02-23T00:56:41;93963.19;;;10.79;49.48
20009;BME280;10165;42.662;23.260;2023-02-23T00:59:09;93950.84;;;10.90;48.97
20009;BME280;10165;42.662;23.260;2023-02-23T01:01:36;93961.25;;;10.95;48.35
20009;BME280;10165;42.662;23.260;2023-02-23T01:04:04;93959.06;;;11.00;48.54
20009;BME280;10165;42.662;23.260;2023-02-23T01:06:33;93953.13;;;11.07;48.37
20009;BME280;10165;42.662;23.260;2023-02-23T01:09:07;93961.66;;;10.97;48.23
20009;BME280;10165;42.662;23.260;2023-02-23T01:11:34;93958.81;;;11.06;48.12
20009;BME280;10165;42.662;23.260;2023-02-23T01:14:01;93966.88;;;11.09;48.14
20009;BME280;10165;42.662;23.260;2023-02-23T01:16:31;93968.19;;;11.15;47.72
20009;BME280;10165;42.662;23.260;2023-02-23T01:19:00;93965.34;;;11.08;48.04
20009;BME280;10165;42.662;23.260;2023-02-23T01:21:31;93964.00;;;10.98;48.40
20009;BME280;10165;42.662;23.260;2023-02-23T01:23:59;93965.25;;;11.04;48.11
20009;BME280;10165;42.662;23.260;2023-02-23T01:26:28;93954.94;;;11.03;48.19
20009;BME280;10165;42.662;23.260;2023-02-23T01:28:57;93953.56;;;10.93;48.43
20009;BME280;10165;42.662;23.260;2023-02-23T01:31:27;93961.78;;;10.85;48.50
20009;BME280;10165;42.662;23.260;2023-02-23T01:33:57;93960.34;;;10.87;48.60
20009;BME280;10165;42.662;23.260;2023-02-23T01:36:24;93959.56;;;10.87;48.51
20009;BME280;10165;42.662;23.260;2023-02-23T01:38:52;93963.84;;;10.91;48.61
20009;BME280;10165;42.662;23.260;2023-02-23T01:41:23;93960.34;;;10.87;48.62
20009;BME280;10165;42.662;23.260;2023-02-23T01:44:08;93958.28;;;10.81;48.41
20009;BME280;10165;42.662;23.260;2023-02-23T01:46:53;93955.25;;;10.82;48.51
20009;BME280;10165;42.662;23.260;2023-02-23T01:49:23;93958.63;;;10.79;48.64
20009;BME280;10165;42.662;23.260;2023-02-23T01:51:58;93954.41;;;10.78;48.37
20009;BME280;10165;42.662;23.260;2023-02-23T01:54:29;93956.84;;;10.68;49.10
20009;BME280;10165;42.662;23.260;2023-02-23T01:57:00;93953.50;;;10.39;49.55
20009;BME280;10165;42.662;23.260;2023-02-23T01:59:34;93953.97;;;10.26;50.17
20009;BME280;10165;42.662;23.260;2023-02-23T02:02:03;93949.63;;;10.52;49.73
20009;BME280;10165;42.662;23.260;2023-02-23T02:04:33;93949.53;;;10.65;49.05
20009;BME280;10165;42.662;23.260;2023-02-23T02:07:20;93948.94;;;10.55;49.37
20009;BME280;10165;42.662;23.260;2023-02-23T02:09:50;93941.84;;;10.63;49.25
20009;BME280;10165;42.662;23.260;2023-02-23T02:12:37;93947.28;;;10.67;49.29
20009;BME280;10165;42.662;23.260;2023-02-23T02:15:05;93944.53;;;10.63;49.19
20009;BME280;10165;42.662;23.260;2023-02-23T02:17:54;93943.50;;;10.52;49.57
20009;BME280;10165;42.662;23.260;2023-02-23T02:20:34;93945.41;;;10.51;49.68
20009;BME280;10165;42.662;23.260;2023-02-23T02:39:58;93937.69;;;10.31;50.20
20009;BME280;10165;42.662;23.260;2023-02-23T02:43:19;93937.00;;;10.34;50.13
20009;BME280;10165;42.662;23.260;2023-02-23T02:46:00;93938.97;;;10.37;50.19
20009;BME280;10165;42.662;23.260;2023-02-23T02:48:49;93948.69;;;10.14;51.25
20009;BME280;10165;42.662;23.260;2023-02-23T02:51:29;93941.72;;;8.94;53.99
20009;BME280;10165;42.662;23.260;2023-02-23T02:56:37;93947.78;;;8.55;56.36
20009;BME280;10165;42.662;23.260;2023-02-23T02:59:09;93938.84;;;9.27;54.30
20009;BME280;10165;42.662;23.260;2023-02-23T03:01:56;93943.47;;;9.58;53.28
20009;BME280;10165;42.662;23.260;2023-02-23T03:04:42;93945.00;;;9.59;52.76
20009;BME280;10165;42.662;23.260;2023-02-23T03:07:48;93942.66;;;9.14;53.71
20009;BME280;10165;42.662;23.260;2023-02-23T03:11:10;93936.41;;;9.22;53.60
20009;BME280;10165;42.662;23.260;2023-02-23T03:20:22;93944.28;;;9.90;51.52
20009;BME280;10165;42.662;23.260;2023-02-23T03:26:39;93948.75;;;9.86;51.44
20009;BME280;10165;42.662;23.260;2023-02-23T03:32:36;93961.84;;;9.91;51.00
20009;BME280;10165;42.662;23.260;2023-02-23T03:38:52;93961.66;;;9.84;50.91
20009;BME280;10165;42.662;23.260;2023-02-23T03:41:43;93965.03;;;9.96;50.69
20009;BME280;10165;42.662;23.260;2023-02-23T03:44:34;93973.97;;;9.88;50.70
20009;BME280;10165;42.662;23.260;2023-02-23T03:47:23;93965.97;;;9.88;50.90
20009;BME280;10165;42.662;23.260;2023-02-23T03:50:20;93970.84;;;9.71;51.25
20009;BME280;10165;42.662;23.260;2023-02-23T03:53:10;93969.03;;;9.75;51.29
20009;BME280;10165;42.662;23.260;2023-02-23T03:55:56;93967.09;;;9.87;51.08
20009;BME280;10165;42.662;23.260;2023-02-23T03:58:47;93978.00;;;9.82;50.93
20009;BME280;10165;42.662;23.260;2023-02-23T04:01:35;93974.56;;;9.82;50.96
20009;BME280;10165;42.662;23.260;2023-02-23T04:04:23;93984.13;;;9.83;51.18
20009;BME280;10165;42.662;23.260;2023-02-23T04:07:10;93972.91;;;9.62;51.36
20009;BME280;10165;42.662;23.260;2023-02-23T04:09:57;93980.31;;;9.68;51.72
20009;BME280;10165;42.662;23.260;2023-02-23T04:15:53;93969.53;;;9.65;51.55
20009;BME280;10165;42.662;23.260;2023-02-23T04:18:29;93970.84;;;9.71;51.03
20009;BME280;10165;42.662;23.260;2023-02-23T04:20:58;93974.13;;;9.80;50.96
20009;BME280;10165;42.662;23.260;2023-02-23T04:23:25;93967.25;;;9.79;51.08
20009;BME280;10165;42.662;23.260;2023-02-23T04:25:53;93967.94;;;9.76;50.79
20009;BME280;10165;42.662;23.260;2023-02-23T04:28:22;93968.16;;;9.71;51.22
20009;BME280;10165;42.662;23.260;2023-02-23T04:30:48;93970.16;;;9.58;51.55
20009;BME280;10165;42.662;23.260;2023-02-23T04:33:18;93971.94;;;9.54;51.77
20009;BME280;10165;42.662;23.260;2023-02-23T04:35:45;93974.38;;;9.31;52.29
20009;BME280;10165;42.662;23.260;2023-02-23T04:38:11;93971.22;;;9.41;52.02
20009;BME280;10165;42.662;23.260;2023-02-23T04:40:38;93973.03;;;9.53;51.66
20009;BME280;10165;42.662;23.260;2023-02-23T04:43:05;93969.06;;;9.47;51.77
20009;BME280;10165;42.662;23.260;2023-02-23T04:45:32;93978.38;;;9.53;51.75
20009;BME280;10165;42.662;23.260;2023-02-23T04:47:59;93973.81;;;9.53;51.69
20009;BME280;10165;42.662;23.260;2023-02-23T04:50:25;93978.66;;;9.64;51.11
20009;BME280;10165;42.662;23.260;2023-02-23T04:52:52;93971.66;;;9.59;51.54
20009;BME280;10165;42.662;23.260;2023-02-23T04:55:22;93972.00;;;9.42;51.79
20009;BME280;10165;42.662;23.260;2023-02-23T04:57:50;93971.22;;;9.41;52.17
20009;BME280;10165;42.662;23.260;2023-02-23T05:00:18;93978.63;;;9.48;52.03
20009;BME280;10165;42.662;23.260;2023-02-23T05:02:44;93975.94;;;9.48;51.73
20009;BME280;10165;42.662;23.260;2023-02-23T05:05:11;93963.44;;;9.36;52.33
20009;BME280;10165;42.662;23.260;2023-02-23T05:07:38;93974.88;;;9.37;52.53
20009;BME280;10165;42.662;23.260;2023-02-23T05:10:05;93970.25;;;9.34;52.16
20009;BME280;10165;42.662;23.260;2023-02-23T05:12:32;93974.41;;;9.19;52.73
20009;BME280;10165;42.662;23.260;2023-02-23T05:14:59;93971.13;;;8.86;54.08
20009;BME280;10165;42.662;23.260;2023-02-23T05:17:25;93972.97;;;9.09;53.56
20009;BME280;10165;42.662;23.260;2023-02-23T05:19:52;93973.91;;;9.29;53.35
20009;BME280;10165;42.662;23.260;2023-02-23T05:22:19;93974.69;;;9.30;53.20
20009;BME280;10165;42.662;23.260;2023-02-23T05:24:46;93979.88;;;9.10;53.80
20009;BME280;10165;42.662;23.260;2023-02-23T05:27:16;93978.22;;;9.34;53.03
20009;BME280;10165;42.662;23.260;2023-02-23T05:29:47;93979.63;;;9.43;52.49
20009;BME280;10165;42.662;23.260;2023-02-23T05:32:14;93990.88;;;9.37;52.86
20009;BME280;10165;42.662;23.260;2023-02-23T05:34:40;93989.22;;;9.32;52.77
20009;BME280;10165;42.662;23.260;2023-02-23T05:37:23;93993.22;;;9.38;52.77
20009;BME280;10165;42.662;23.260;2023-02-23T05:39:50;94003.00;;;9.34;52.75
20009;BME280;10165;42.662;23.260;2023-02-23T05:42:17;93998.78;;;9.33;52.82
20009;BME280;10165;42.662;23.260;2023-02-23T05:44:49;94004.53;;;9.35;52.68
20009;BME280;10165;42.662;23.260;2023-02-23T05:47:16;94006.88;;;9.37;52.84
20009;BME280;10165;42.662;23.260;2023-02-23T05:49:43;94002.41;;;9.41;52.69
20009;BME280;10165;42.662;23.260;2023-02-23T05:52:11;94011.88;;;9.38;52.63
20009;BME280;10165;42.662;23.260;2023-02-23T05:54:38;94014.03;;;9.21;53.27
20009;BME280;10165;42.662;23.260;2023-02-23T05:57:04;94023.72;;;9.01;53.85
20009;BME280;10165;42.662;23.260;2023-02-23T05:59:31;94031.84;;;8.32;56.12
20009;BME280;10165;42.662;23.260;2023-02-23T06:01:57;94025.88;;;8.71;55.55
20009;BME280;10165;42.662;23.260;2023-02-23T06:04:24;94023.97;;;8.96;54.63
20009;BME280;10165;42.662;23.260;2023-02-23T06:06:51;94019.72;;;9.19;53.99
20009;BME280;10165;42.662;23.260;2023-02-23T06:09:18;94022.66;;;9.30;53.84
20009;BME280;10165;42.662;23.260;2023-02-23T06:11:45;94034.72;;;8.99;54.34
20009;BME280;10165;42.662;23.260;2023-02-23T06:14:12;94032.03;;;9.24;54.17
20009;BME280;10165;42.662;23.260;2023-02-23T06:16:39;94034.00;;;9.27;54.25
20009;BME280;10165;42.662;23.260;2023-02-23T06:19:06;94023.44;;;9.30;54.32
20009;BME280;10165;42.662;23.260;2023-02-23T06:21:33;94040.34;;;9.10;54.77
20009;BME280;10165;42.662;23.260;2023-02-23T06:24:00;94039.34;;;9.15;55.11
20009;BME280;10165;42.662;23.260;2023-02-23T06:26:27;94038.97;;;9.28;54.78
20009;BME280;10165;42.662;23.260;2023-02-23T06:28:54;94049.13;;;9.10;55.23
20009;BME280;10165;42.662;23.260;2023-02-23T06:31:21;94046.69;;;8.93;56.00
20009;BME280;10165;42.662;23.260;2023-02-23T06:33:48;94044.47;;;9.20;55.54
20009;BME280;10165;42.662;23.260;2023-02-23T06:36:15;94048.16;;;9.43;55.11
20009;BME280;10165;42.662;23.260;2023-02-23T06:38:42;94048.28;;;9.46;54.50
20009;BME280;10165;42.662;23.260;2023-02-23T06:41:11;94058.13;;;9.06;55.27
20009;BME280;10165;42.662;23.260;2023-02-23T06:43:37;94048.94;;;8.79;56.53
20009;BME280;10165;42.662;23.260;2023-02-23T06:46:04;94047.03;;;9.44;55.08
20009;BME280;10165;42.662;23.260;2023-02-23T06:48:31;94052.94;;;9.49;54.56
20009;BME280;10165;42.662;23.260;2023-02-23T06:50:59;94060.69;;;9.02;56.14
20009;BME280;10165;42.662;23.260;2023-02-23T06:53:26;94045.34;;;9.51;55.17
20009;BME280;10165;42.662;23.260;2023-02-23T06:55:52;94052.44;;;9.59;54.55
20009;BME280;10165;42.662;23.260;2023-02-23T06:58:19;94049.88;;;9.63;54.47
20009;BME280;10165;42.662;23.260;2023-02-23T07:00:45;94050.31;;;9.65;54.46
20009;BME280;10165;42.662;23.260;2023-02-23T07:03:12;94050.84;;;9.71;54.83
20009;BME280;10165;42.662;23.260;2023-02-23T07:05:39;94058.47;;;9.56;55.39
20009;BME280;10165;42.662;23.260;2023-02-23T07:08:06;94051.75;;;9.90;54.08
20009;BME280;10165;42.662;23.260;2023-02-23T07:10:33;94052.66;;;10.10;53.83
20009;BME280;10165;42.662;23.260;2023-02-23T07:13:00;94054.38;;;10.02;54.16
20009;BME280;10165;42.662;23.260;2023-02-23T07:15:27;94053.84;;;10.25;53.40
20009;BME280;10165;42.662;23.260;2023-02-23T07:17:54;94057.38;;;10.29;53.41
20009;BME280;10165;42.662;23.260;2023-02-23T07:20:20;94050.00;;;10.38;53.10
20009;BME280;10165;42.662;23.260;2023-02-23T07:22:47;94050.56;;;10.47;52.83
20009;BME280;10165;42.662;23.260;2023-02-23T07:25:14;94048.06;;;10.54;52.66
20009;BME280;10165;42.662;23.260;2023-02-23T07:27:40;94046.28;;;10.42;52.87
20009;BME280;10165;42.662;23.260;2023-02-23T07:30:08;94051.50;;;10.39;53.20
20009;BME280;10165;42.662;23.260;2023-02-23T07:32:35;94053.78;;;10.52;52.80
20009;BME280;10165;42.662;23.260;2023-02-23T07:35:03;94046.88;;;10.67;52.59
20009;BME280;10165;42.662;23.260;2023-02-23T07:37:30;94046.59;;;10.88;52.26
20009;BME280;10165;42.662;23.260;2023-02-23T07:39:57;94044.59;;;10.85;52.06
20009;BME280;10165;42.662;23.260;2023-02-23T07:42:26;94041.19;;;10.84;51.93
20009;BME280;10165;42.662;23.260;2023-02-23T07:44:53;94047.66;;;10.52;52.76
20009;BME280;10165;42.662;23.260;2023-02-23T07:47:20;94044.97;;;10.52;52.86
20009;BME280;10165;42.662;23.260;2023-02-23T07:49:48;94041.34;;;10.91;51.70
20009;BME280;10165;42.662;23.260;2023-02-23T07:52:16;94035.13;;;11.03;51.39
20009;BME280;10165;42.662;23.260;2023-02-23T07:54:44;94042.00;;;11.04;51.12
20009;BME280;10165;42.662;23.260;2023-02-23T07:57:10;94033.53;;;10.67;52.31
20009;BME280;10165;42.662;23.260;2023-02-23T07:59:38;94034.53;;;10.94;51.37
20009;BME280;10165;42.662;23.260;2023-02-23T08:02:04;94043.13;;;11.03;51.18
20009;BME280;10165;42.662;23.260;2023-02-23T08:04:33;94035.44;;;11.01;51.26
20009;BME280;10165;42.662;23.260;2023-02-23T08:07:00;94041.69;;;10.90;51.16
20009;BME280;10165;42.662;23.260;2023-02-23T08:09:27;94041.88;;;10.19;52.77
20009;BME280;10165;42.662;23.260;2023-02-23T08:11:55;94028.16;;;10.83;51.35
20009;BME280;10165;42.662;23.260;2023-02-23T08:14:22;94031.75;;;11.06;51.00
20009;BME280;10165;42.662;23.260;2023-02-23T08:16:49;94037.91;;;10.75;51.59
20009;BME280;10165;42.662;23.260;2023-02-23T08:19:17;94028.06;;;10.95;51.22
20009;BME280;10165;42.662;23.260;2023-02-23T08:21:44;94039.00;;;10.90;51.22
20009;BME280;10165;42.662;23.260;2023-02-23T08:24:11;94033.19;;;10.37;51.98
20009;BME280;10165;42.662;23.260;2023-02-23T08:26:37;94036.69;;;11.23;50.46
20009;BME280;10165;42.662;23.260;2023-02-23T08:29:04;94038.91;;;11.56;49.16
20009;BME280;10165;42.662;23.260;2023-02-23T08:31:31;94036.03;;;11.65;49.26
20009;BME280;10165;42.662;23.260;2023-02-23T08:33:58;94037.63;;;11.69;48.35
20009;BME280;10165;42.662;23.260;2023-02-23T08:36:24;94040.97;;;11.63;48.60
20009;BME280;10165;42.662;23.260;2023-02-23T08:38:51;94048.38;;;11.88;48.19
20009;BME280;10165;42.662;23.260;2023-02-23T08:41:20;94036.78;;;11.65;48.68
20009;BME280;10165;42.662;23.260;2023-02-23T08:43:47;94040.06;;;11.74;48.74
20009;BME280;10165;42.662;23.260;2023-02-23T08:46:14;94037.72;;;11.92;48.26
20009;BME280;10165;42.662;23.260;2023-02-23T08:48:44;94044.38;;;11.25;48.89
20009;BME280;10165;42.662;23.260;2023-02-23T08:51:12;94038.47;;;11.35;48.82
20009;BME280;10165;42.662;23.260;2023-02-23T08:53:40;94036.09;;;11.49;48.60
20009;BME280;10165;42.662;23.260;2023-02-23T08:56:07;94036.03;;;11.65;48.73
20009;BME280;10165;42.662;23.260;2023-02-23T08:58:35;94033.81;;;11.86;47.60
20009;BME280;10165;42.662;23.260;2023-02-23T09:01:02;94040.34;;;11.88;47.77
20009;BME280;10165;42.662;23.260;2023-02-23T09:03:29;94037.97;;;12.25;46.70
20009;BME280;10165;42.662;23.260;2023-02-23T09:05:57;94032.78;;;12.13;46.82
20009;BME280;10165;42.662;23.260;2023-02-23T09:08:24;94029.13;;;12.44;46.74
20009;BME280;10165;42.662;23.260;2023-02-23T09:10:51;94034.22;;;11.88;47.84
20009;BME280;10165;42.662;23.260;2023-02-23T09:13:19;94023.94;;;12.32;47.01
20009;BME280;10165;42.662;23.260;2023-02-23T09:15:45;94029.13;;;12.44;46.71
20009;BME280;10165;42.662;23.260;2023-02-23T09:18:13;94031.53;;;12.75;45.82
20009;BME280;10165;42.662;23.260;2023-02-23T09:20:41;94032.97;;;12.46;46.21
20009;BME280;10165;42.662;23.260;2023-02-23T09:23:09;94022.75;;;12.29;46.43
20009;BME280;10165;42.662;23.260;2023-02-23T09:25:43;94024.53;;;12.67;45.35
20009;BME280;10165;42.662;23.260;2023-02-23T09:28:15;94023.44;;;12.72;45.44
20009;BME280;10165;42.662;23.260;2023-02-23T09:30:43;94027.25;;;12.71;45.94
20009;BME280;10165;42.662;23.260;2023-02-23T09:33:11;94029.09;;;13.16;45.06
20009;BME280;10165;42.662;23.260;2023-02-23T09:35:39;94028.47;;;13.52;44.19
20009;BME280;10165;42.662;23.260;2023-02-23T09:38:07;94032.59;;;13.20;44.42
20009;BME280;10165;42.662;23.260;2023-02-23T09:40:51;94029.41;;;13.37;43.95
20009;BME280;10165;42.662;23.260;2023-02-23T09:48:34;94028.88;;;13.87;42.70
20009;BME280;10165;42.662;23.260;2023-02-23T09:51:01;94019.56;;;13.78;43.16
20009;BME280;10165;42.662;23.260;2023-02-23T09:53:32;94024.19;;;13.81;42.58
20009;BME280;10165;42.662;23.260;2023-02-23T09:55:59;94021.22;;;13.89;42.42
20009;BME280;10165;42.662;23.260;2023-02-23T09:58:31;94013.31;;;13.67;42.62
20009;BME280;10165;42.662;23.260;2023-02-23T10:01:16;94018.53;;;13.56;43.29
20009;BME280;10165;42.662;23.260;2023-02-23T10:04:10;94014.28;;;13.85;42.63
20009;BME280;10165;42.662;23.260;2023-02-23T10:06:39;94015.09;;;13.89;42.80
20009;BME280;10165;42.662;23.260;2023-02-23T10:09:45;94018.03;;;14.10;42.19
20009;BME280;10165;42.662;23.260;2023-02-23T10:12:15;94010.94;;;14.32;41.54
20009;BME280;10165;42.662;23.260;2023-02-23T10:20:15;93999.59;;;14.49;41.44
20009;BME280;10165;42.662;23.260;2023-02-23T10:22:46;94002.38;;;13.82;42.84
20009;BME280;10165;42.662;23.260;2023-02-23T10:25:23;94010.28;;;14.05;42.48
20009;BME280;10165;42.662;23.260;2023-02-23T10:27:51;93997.84;;;13.57;43.42
20009;BME280;10165;42.662;23.260;2023-02-23T10:30:25;93995.06;;;14.20;42.27
20009;BME280;10165;42.662;23.260;2023-02-23T10:35:43;93987.47;;;14.69;41.17
20009;BME280;10165;42.662;23.260;2023-02-23T10:38:15;93984.97;;;14.43;41.21
20009;BME280;10165;42.662;23.260;2023-02-23T10:40:49;93982.91;;;13.93;42.42
20009;BME280;10165;42.662;23.260;2023-02-23T10:43:18;93982.38;;;14.17;42.32
20009;BME280;10165;42.662;23.260;2023-02-23T10:45:48;93974.72;;;14.59;41.13
20009;BME280;10165;42.662;23.260;2023-02-23T10:48:36;93973.72;;;14.78;40.89
20009;BME280;10165;42.662;23.260;2023-02-23T10:51:15;93966.22;;;15.05;40.45
20009;BME280;10165;42.662;23.260;2023-02-23T10:53:44;93958.38;;;14.78;40.80
20009;BME280;10165;42.662;23.260;2023-02-23T10:56:12;93962.75;;;15.08;40.44
20009;BME280;10165;42.662;23.260;2023-02-23T10:58:51;93965.16;;;15.20;39.83
20009;BME280;10165;42.662;23.260;2023-02-23T11:04:31;93951.88;;;15.55;39.19
20009;BME280;10165;42.662;23.260;2023-02-23T11:07:19;93951.47;;;15.50;39.22
20009;BME280;10165;42.662;23.260;2023-02-23T11:09:47;93947.69;;;15.72;39.06
20009;BME280;10165;42.662;23.260;2023-02-23T11:14:53;93946.78;;;15.40;39.25
20009;BME280;10165;42.662;23.260;2023-02-23T11:17:32;93938.03;;;15.60;38.41
20009;BME280;10165;42.662;23.260;2023-02-23T11:20:21;93938.81;;;15.64;38.68
20009;BME280;10165;42.662;23.260;2023-02-23T11:22:51;93935.78;;;15.69;38.59
20009;BME280;10165;42.662;23.260;2023-02-23T11:25:27;93931.25;;;16.02;38.25
20009;BME280;10165;42.662;23.260;2023-02-23T11:27:55;93925.03;;;15.91;38.27
20009;BME280;10165;42.662;23.260;2023-02-23T11:30:24;93930.88;;;16.24;37.68
20009;BME280;10165;42.662;23.260;2023-02-23T11:32:57;93919.97;;;15.68;38.06
20009;BME280;10165;42.662;23.260;2023-02-23T11:35:27;93913.94;;;16.17;37.97
20009;BME280;10165;42.662;23.260;2023-02-23T11:37:55;93920.88;;;16.43;36.90
20009;BME280;10165;42.662;23.260;2023-02-23T11:40:31;93907.78;;;16.38;37.57
20009;BME280;10165;42.662;23.260;2023-02-23T11:43:07;93917.41;;;16.46;36.99
20009;BME280;10165;42.662;23.260;2023-02-23T11:45:44;93914.34;;;16.65;36.83
20009;BME280;10165;42.662;23.260;2023-02-23T11:48:22;93903.13;;;16.10;37.01
20009;BME280;10165;42.662;23.260;2023-02-23T11:50:52;93913.81;;;15.64;37.99
20009;BME280;10165;42.662;23.260;2023-02-23T11:53:31;93904.31;;;16.12;37.35
20009;BME280;10165;42.662;23.260;2023-02-23T11:56:01;93903.91;;;16.07;37.55
20009;BME280;10165;42.662;23.260;2023-02-23T12:01:06;93900.09;;;16.47;36.87
20009;BME280;10165;42.662;23.260;2023-02-23T12:03:46;93899.72;;;16.62;36.70
20009;BME280;10165;42.662;23.260;2023-02-23T12:06:33;93900.50;;;16.59;36.60
20009;BME280;10165;42.662;23.260;2023-02-23T12:09:05;93893.53;;;16.51;36.52
20009;BME280;10165;42.662;23.260;2023-02-23T12:11:42;93903.16;;;16.24;36.78
20009;BME280;10165;42.662;23.260;2023-02-23T12:14:30;93898.53;;;16.46;36.87
20009;BME280;10165;42.662;23.260;2023-02-23T12:17:05;93895.84;;;16.32;37.13
20009;BME280;10165;42.662;23.260;2023-02-23T12:19:44;93896.63;;;16.43;37.00
20009;BME280;10165;42.662;23.260;2023-02-23T12:22:17;93882.72;;;16.87;36.19
20009;BME280;10165;42.662;23.260;2023-02-23T12:25:10;93888.88;;;16.87;36.05
20009;BME280;10165;42.662;23.260;2023-02-23T12:27:47;93888.09;;;17.01;35.84
20009;BME280;10165;42.662;23.260;2023-02-23T12:30:25;93885.81;;;16.85;36.25
20009;BME280;10165;42.662;23.260;2023-02-23T12:33:17;93888.88;;;15.85;37.31
20009;BME280;10165;42.662;23.260;2023-02-23T12:38:53;93883.50;;;16.80;35.65
20009;BME280;10165;42.662;23.260;2023-02-23T12:41:33;93892.25;;;17.23;35.73
20009;BME280;10165;42.662;23.260;2023-02-23T12:46:46;93878.38;;;17.25;35.23
20009;BME280;10165;42.662;23.260;2023-02-23T12:51:49;93874.59;;;17.01;35.13
20009;BME280;10165;42.662;23.260;2023-02-23T12:54:18;93878.41;;;17.14;35.23
20009;BME280;10165;42.662;23.260;2023-02-23T13:01:57;93865.16;;;17.51;35.14
20009;BME280;10165;42.662;23.260;2023-02-23T13:18:01;93869.56;;;17.06;35.51
20009;BME280;10165;42.662;23.260;2023-02-23T13:23:29;93868.81;;;16.99;35.97
20009;BME280;10165;42.662;23.260;2023-02-23T13:26:26;93858.34;;;17.15;35.91
20009;BME280;10165;42.662;23.260;2023-02-23T13:29:02;93860.22;;;17.32;35.89
20009;BME280;10165;42.662;23.260;2023-02-23T13:31:34;93862.13;;;17.39;36.21
20009;BME280;10165;42.662;23.260;2023-02-23T13:34:05;93864.09;;;17.24;36.25
20009;BME280;10165;42.662;23.260;2023-02-23T13:36:35;93858.56;;;17.63;36.00
20009;BME280;10165;42.662;23.260;2023-02-23T13:39:21;93861.66;;;17.54;35.83
20009;BME280;10165;42.662;23.260;2023-02-23T13:53:45;93864.69;;;17.71;35.93
20009;BME280;10165;42.662;23.260;2023-02-23T13:56:16;93865.59;;;17.29;36.30
20009;BME280;10165;42.662;23.260;2023-02-23T13:58:51;93867.59;;;17.25;36.57
20009;BME280;10165;42.662;23.260;2023-02-23T14:01:30;93866.03;;;17.27;36.35
20009;BME280;10165;42.662;23.260;2023-02-23T14:04:00;93876.56;;;16.76;36.97
20009;BME280;10165;42.662;23.260;2023-02-23T14:06:30;93868.06;;;16.91;36.93
20009;BME280;10165;42.662;23.260;2023-02-23T14:09:18;93869.50;;;17.24;36.48
20009;BME280;10165;42.662;23.260;2023-02-23T14:11:52;93864.78;;;17.42;35.90
20009;BME280;10165;42.662;23.260;2023-02-23T14:22:22;93863.31;;;17.27;36.14
20009;BME280;10165;42.662;23.260;2023-02-23T14:39:14;93862.81;;;17.60;35.70
20009;BME280;10165;42.662;23.260;2023-02-23T14:41:50;93861.44;;;17.10;36.54
20009;BME280;10165;42.662;23.260;2023-02-23T14:44:35;93859.63;;;16.71;38.34
20009;BME280;10165;42.662;23.260;2023-02-23T14:47:14;93851.88;;;16.88;38.38
20009;BME280;10165;42.662;23.260;2023-02-23T14:49:58;93856.16;;;16.50;39.58
20009;BME280;10165;42.662;23.260;2023-02-23T14:52:28;93845.78;;;16.34;40.00
20009;BME280;10165;42.662;23.260;2023-02-23T14:57:43;93846.56;;;16.31;40.55
20009;BME280;10165;42.662;23.260;2023-02-23T15:00:20;93842.69;;;16.50;40.14
20009;BME280;10165;42.662;23.260;2023-02-23T15:03:00;93840.72;;;16.86;39.24
20009;BME280;10165;42.662;23.260;2023-02-23T15:05:55;93846.56;;;16.66;39.33
20009;BME280;10165;42.662;23.260;2023-02-23T15:08:28;93845.38;;;16.78;38.95
20009;BME280;10165;42.662;23.260;2023-02-23T15:13:48;93864.13;;;15.40;41.74
20009;BME280;10165;42.662;23.260;2023-02-23T15:16:47;93859.25;;;15.99;40.67
20009;BME280;10165;42.662;23.260;2023-02-23T15:19:20;93856.59;;;16.09;40.49
20009;BME280;10165;42.662;23.260;2023-02-23T15:21:56;93863.88;;;16.41;39.72
20009;BME280;10165;42.662;23.260;2023-02-23T15:24:29;93863.88;;;16.34;40.00
20009;BME280;10165;42.662;23.260;2023-02-23T15:26:57;93871.13;;;15.62;41.22
20009;BME280;10165;42.662;23.260;2023-02-23T15:29:32;93871.91;;;15.56;41.73
20009;BME280;10165;42.662;23.260;2023-02-23T15:32:19;93881.06;;;15.44;41.63